Предлагаем Вашему вниманию английскую версию страницы: AUTOTAF.ME USMM - aviation weather forecast Nadym

AUTOTAF USMM - авиапрогноз Надым

Сегодня рассвет 03:12 UTC, восход солнца 04:16 UTC,
местный полдень 07:21 UTC, заход солнца 10:27 UTC,
наступление темноты 11:31 UTC.

Краткий прогноз USMM на 9 часов

AUTOTAF.ME USMM 271400Z 2715/2724 32004MPS 1000 BR NSC     
  FM272100 VRB02MPS 0500 FG IC NSC 
  FM280000 11003MPS CAVOK

Детальный прогноз USMM на 24 часа

AUTOTAF.ME USMM 271400Z 2715/2815 32004MPS 1000 BR SKC TXM34/2809Z TNM41/2721Z   
  FM272100 VRB02MPS 0500 FG IC FEW160 
  FM280000 11003MPS 9999 SCT120  
  BECMG 2804/2806 12006MPS    
  BECMG 2813/2815 2000

Подробный табличный прогноз

Время (UTC) miniAUTOTAF на 3 ч WX FZLVL
M AGL
ICE TURB Т
(°С)
Тd
(°С)
f(%) QNH
(гПа)
WIND/T
12 32005MPS 1000 BR SKC BR SFC -37 -41 66 1027 ...
15 32004MPS 1000 BR SKC BR SFC -38 -42 66 1027 ...
18 VRB02MPS 1000 BR FEW200 BR SFC -40 -44 66 1028 ...
21 VRB02MPS 0500 FG IC FEW160 FG IC SFC -41 -44 66 1028 ...
28.01.2021
00 11003MPS 9999 SCT120 SFC -41 -45 66 1028 ...
03 11005MPS 9999 SKC SFC MOD FL90/FL100 -39 -43 67 1026 ...
06 12006MPS 9999 SKC SFC MOD FL50/FL60 -36 -40 66 1026 ...
09 11007MPS 9999 SKC SFC MOD FL50/FL60 -34 -38 66 1023 ...
12 11007MPS 9999 SKC SFC MOD FL50/FL60 -34 -38 67 1022 ...
15 11007MPS 2000 SKC SFC FBL FL70/FL110 -34 -38 66 1021 ...
18 10006MPS 9999 SKC SFC FBL FL70/FL110 -34 -38 65 1020 ...
21 08005MPS 9999 SKC SFC FBL FL70/FL110 -34 -38 66 1021 ...
29.01.2021
00 06005MPS 9999 SKC SFC MOD FL110/FL120 -34 -38 66 1023 ...
03 03004MPS 9999 SKC SFC -35 -39 66 1026 ...
06 02004MPS 9999 SKC SFC -35 -39 65 1029 ...
09 01004MPS 9999 SKC SFC MOD FL70/FL80 -36 -40 66 1032 ...


Широта 65.48173°, долгота 72.69896°, высота 15 м абс.
Средняя высота рельефа местности 22 м абс.
Прогнозы обновляются четыре раза в сутки: в 02, 08, 14, 20 ч всемирного времени.


Выбрать прогноз по другой модели Надым
Онлайн-сводка гроз по Надым (для РФ и ближнего зарубежья)
Карта фактических гроз в окрестностях Надым
Динамические прогностические карты (ventusky.com)
Прогностическая карта высоты нижней границы облаков по Надым (windy.com)
Выбрать другой город

Прогноз предназначен для личного научно-познавательного использования частными лицами
и не предназначен для принятия важных решений и выполнения реальных полётов воздушных судов

При копировании или ином использовании любых материалов данного сайта ссылка на © meteocenter.asia обязательна.

0.68/1.1